Time;durP1;ratioP1;P1;durP2;ratioP2;P2;SDS_P1;SDS_P2;PMS_P1;PMS_P2;Temp;Humidity;BMP_temperature;BMP_pressure;BME280_temperature;BME280_humidity;BME280_pressure;Samples;Min_cycle;Max_cycle;Signal;HPM_P1;HPM_P2
2022/08/05 00:01:17;;;;;;;2.10;0.75;;;28.40;74.50;;;;;;4993042;28;20038;-72
2022/08/05 00:03:43;;;;;;;0.45;0.30;;;28.20;75.10;;;;;;4992534;28;20108;-73
2022/08/05 00:06:09;;;;;;;2.50;1.50;;;28.20;75.60;;;;;;4993210;28;20022;-73
2022/08/05 00:08:36;;;;;;;0.88;0.32;;;28.10;76.10;;;;;;4993117;28;20028;-72
2022/08/05 00:11:07;;;;;;;0.35;0.35;;;28.00;76.50;;;;;;4991083;28;20026;-74
2022/08/05 00:13:34;;;;;;;;;;;27.90;76.90;;;;;;4992950;28;20052;-73
2022/08/05 00:16:01;;;;;;;4.95;1.02;;;27.90;77.40;;;;;;4992727;28;19909;-73
2022/08/05 00:18:28;;;;;;;0.90;0.85;;;27.80;77.90;;;;;;4991570;28;20026;-71
2022/08/05 00:20:54;;;;;;;0.52;0.47;;;27.80;78.50;;;;;;4991151;28;20022;-73
2022/08/05 00:23:21;;;;;;;0.68;0.55;;;27.70;79.40;;;;;;4992109;28;20030;-72
2022/08/05 00:25:47;;;;;;;0.80;0.70;;;27.60;80.40;;;;;;4991502;28;20430;-73
2022/08/05 00:28:14;;;;;;;0.38;0.38;;;27.50;81.30;;;;;;4992563;28;20029;-72
2022/08/05 00:30:41;;;;;;;0.32;0.30;;;27.40;81.90;;;;;;4992118;28;20121;-73
2022/08/05 00:33:07;;;;;;;0.20;0.20;;;27.40;83.10;;;;;;4991201;28;20037;-72
2022/08/05 00:35:33;;;;;;;0.60;0.30;;;27.30;83.90;;;;;;4991174;28;20397;-72
2022/08/05 00:37:59;;;;;;;0.70;0.50;;;27.30;84.60;;;;;;4992132;28;20121;-72
2022/08/05 00:40:26;;;;;;;1.17;0.65;;;27.30;85.00;;;;;;4992092;28;20364;-72
2022/08/05 00:42:52;;;;;;;0.30;0.30;;;27.30;85.80;;;;;;4992062;28;20029;-73
2022/08/05 00:45:18;;;;;;;0.45;0.45;;;27.20;86.40;;;;;;4991266;28;20084;-73
2022/08/05 00:47:44;;;;;;;0.30;0.30;;;27.20;87.40;;;;;;4992547;28;20034;-72
2022/08/05 00:50:10;;;;;;;4.60;2.30;;;27.10;88.00;;;;;;4990725;28;20026;-73
2022/08/05 00:52:35;;;;;;;0.38;0.35;;;27.10;88.70;;;;;;4991862;28;20034;-72
2022/08/05 00:55:02;;;;;;;8.43;0.90;;;27.10;89.10;;;;;;4992135;28;20092;-72
2022/08/05 00:57:28;;;;;;;5.93;1.13;;;27.00;89.50;;;;;;4990763;28;20022;-72
2022/08/05 00:59:54;;;;;;;0.30;0.30;;;27.00;89.90;;;;;;4992035;28;20026;-72
2022/08/05 01:02:20;;;;;;;0.65;0.65;;;27.00;90.30;;;;;;4991462;28;20038;-72
2022/08/05 01:04:45;;;;;;;0.40;0.40;;;26.90;90.50;;;;;;4987826;28;20029;-72
2022/08/05 01:07:11;;;;;;;0.32;0.20;;;26.90;90.80;;;;;;4984906;28;20037;-72
2022/08/05 01:09:37;;;;;;;1.80;1.05;;;26.90;91.00;;;;;;4991646;28;20080;-72
2022/08/05 01:12:08;;;;;;;0.17;0.17;;;26.90;91.20;;;;;;4991652;28;20026;-72
2022/08/05 01:14:49;;;;;;;1.77;0.95;;;26.90;91.50;;;;;;4990516;28;20649;-73
2022/08/05 01:17:44;;;;;;;0.77;0.55;;;26.90;91.70;;;;;;4992088;28;20389;-72
2022/08/05 01:23:12;;;;;;;0.40;0.10;;;26.80;92.40;;;;;;4995291;28;20112;-72
2022/08/05 01:26:27;;;;;;;1.08;0.77;;;26.80;92.50;;;;;;4956529;28;20084;-71
2022/08/05 01:29:00;;;;;;;1.05;0.90;;;26.90;92.60;;;;;;4970912;28;20030;-72
2022/08/05 01:31:34;;;;;;;1.50;1.33;;;26.90;92.70;;;;;;4978091;28;20029;-72
2022/08/05 01:34:14;;;;;;;1.40;0.80;;;26.90;92.80;;;;;;4972187;28;20035;-72
2022/08/05 01:36:49;;;;;;;1.10;0.63;;;26.90;92.90;;;;;;4971973;28;20026;-72
2022/08/05 01:39:17;;;;;;;1.08;0.52;;;26.90;92.90;;;;;;4970591;28;20447;-72
2022/08/05 01:41:46;;;;;;;0.10;0.10;;;26.90;93.10;;;;;;4983641;28;20022;-73
2022/08/05 01:44:13;;;;;;;1.27;1.17;;;26.80;93.50;;;;;;5006260;28;20022;-73
2022/08/05 01:46:41;;;;;;;6.32;1.63;;;26.70;94.00;;;;;;5006661;28;20030;-73
2022/08/05 01:49:11;;;;;;;0.40;0.40;;;26.70;94.10;;;;;;5006084;28;20026;-73
2022/08/05 01:51:38;;;;;;;0.98;0.20;;;26.70;94.60;;;;;;5006099;28;20113;-73
2022/08/05 01:54:08;;;;;;;0.10;0.10;;;26.80;94.50;;;;;;5005420;28;20390;-73
2022/08/05 01:56:38;;;;;;;3.70;0.88;;;26.70;94.60;;;;;;5006378;28;20022;-72
2022/08/05 01:59:07;;;;;;;;;;;26.80;94.80;;;;;;5006208;28;20027;-73
2022/08/05 02:01:34;;;;;;;0.40;0.28;;;26.70;95.10;;;;;;4990100;28;19909;-73
2022/08/05 02:04:01;;;;;;;0.40;0.22;;;26.70;95.30;;;;;;4991240;28;20045;-72
2022/08/05 02:06:27;;;;;;;1.23;1.13;;;26.70;95.40;;;;;;4989924;28;20487;-72
2022/08/05 02:08:54;;;;;;;0.68;0.68;;;26.70;95.40;;;;;;5005740;28;20030;-73
2022/08/05 02:11:21;;;;;;;1.50;1.40;;;26.70;95.70;;;;;;5006473;28;20147;-70
2022/08/05 02:14:09;;;;;;;0.32;0.32;;;26.70;95.80;;;;;;5005804;28;20023;-71
2022/08/05 02:16:52;;;;;;;1.55;1.45;;;26.70;95.90;;;;;;4990888;28;20039;-71
2022/08/05 02:19:31;;;;;;;0.28;0.20;;;26.70;95.80;;;;;;4991043;28;20037;-71
2022/08/05 02:22:12;;;;;;;2.33;2.07;;;26.80;95.60;;;;;;4990889;28;20050;-72
2022/08/05 02:24:44;;;;;;;0.43;0.43;;;26.90;95.30;;;;;;5004877;28;20335;-72
2022/08/05 02:27:11;;;;;;;1.73;0.55;;;26.80;95.60;;;;;;5005887;28;20042;-72
2022/08/05 02:29:42;;;;;;;1.10;0.90;;;26.70;95.80;;;;;;4990794;28;20049;-72
2022/08/05 02:32:08;;;;;;;;;;;26.60;96.00;;;;;;5005965;28;20038;-72
2022/08/05 02:34:36;;;;;;;5.68;1.38;;;26.60;96.30;;;;;;5006353;28;20388;-72
2022/08/05 02:37:07;;;;;;;0.43;0.40;;;26.50;96.40;;;;;;4994381;28;20030;-72
2022/08/05 02:39:37;;;;;;;0.50;0.40;;;26.50;96.70;;;;;;5008942;28;20031;-72
2022/08/05 02:42:05;;;;;;;0.10;0.10;;;26.40;96.80;;;;;;4994269;28;20048;-72
2022/08/05 02:44:35;;;;;;;0.57;0.57;;;26.40;96.70;;;;;;4994396;28;20054;-72
2022/08/05 02:47:06;;;;;;;1.58;1.23;;;26.40;96.90;;;;;;5009106;28;20061;-72
2022/08/05 02:49:36;;;;;;;0.88;0.60;;;26.40;97.10;;;;;;5008774;28;20045;-72
2022/08/05 02:52:07;;;;;;;0.32;0.25;;;26.40;97.00;;;;;;4992449;28;20043;-72
2022/08/05 02:54:35;;;;;;;1.13;0.47;;;26.50;97.10;;;;;;4993995;28;20186;-72
2022/08/05 02:57:01;;;;;;;0.45;0.45;;;26.40;97.10;;;;;;5009181;28;20030;-72
2022/08/05 02:59:28;;;;;;;6.97;2.15;;;26.40;97.30;;;;;;4993835;28;20116;-73
2022/08/05 03:01:59;;;;;;;0.85;0.73;;;26.40;97.40;;;;;;5008987;28;20046;-73
2022/08/05 03:04:26;;;;;;;0.70;0.70;;;26.40;97.30;;;;;;4993708;28;20477;-72
2022/08/05 03:06:52;;;;;;;1.13;0.55;;;26.40;97.40;;;;;;5009071;28;20026;-72
2022/08/05 03:09:18;;;;;;;0.63;0.55;;;26.40;97.60;;;;;;5008794;28;20041;-72
2022/08/05 03:11:44;;;;;;;6.22;1.23;;;26.40;97.90;;;;;;5008993;28;20070;-71
2022/08/05 03:14:10;;;;;;;0.60;0.55;;;26.20;98.00;;;;;;4993710;28;20446;-72
2022/08/05 03:16:37;;;;;;;7.80;0.50;;;26.20;98.20;;;;;;4993893;28;20073;-72
2022/08/05 03:19:04;;;;;;;1.77;1.17;;;26.10;98.70;;;;;;4993717;28;20490;-72
2022/08/05 03:21:30;;;;;;;0.68;0.65;;;26.20;99.30;;;;;;4993530;28;20041;-72
2022/08/05 03:23:57;;;;;;;3.22;0.73;;;26.20;99.40;;;;;;4993545;28;20073;-72
2022/08/05 03:26:23;;;;;;;2.25;1.52;;;26.20;99.80;;;;;;4992227;28;20038;-72
2022/08/05 03:28:49;;;;;;;1.20;0.55;;;26.30;99.90;;;;;;4993177;28;20026;-72
2022/08/05 03:31:15;;;;;;;0.73;0.47;;;26.20;99.90;;;;;;5008926;28;20084;-72
2022/08/05 03:33:41;;;;;;;1.77;1.35;;;26.30;99.90;;;;;;5008111;28;20023;-72
2022/08/05 03:36:09;;;;;;;0.15;0.15;;;26.30;99.90;;;;;;4993275;28;20033;-71
2022/08/05 03:38:42;;;;;;;0.70;0.70;;;26.30;99.90;;;;;;4993479;28;20031;-72
2022/08/05 03:41:09;;;;;;;0.95;0.60;;;26.10;99.90;;;;;;5008132;28;20112;-71
2022/08/05 03:43:35;;;;;;;6.78;1.98;;;26.00;99.90;;;;;;4993079;28;20025;-71
2022/08/05 03:46:02;;;;;;;1.08;0.90;;;25.80;99.90;;;;;;5007852;28;20038;-71
2022/08/05 03:48:29;;;;;;;1.95;0.82;;;25.90;99.90;;;;;;4993088;28;20389;-71
2022/08/05 03:51:19;;;;;;;1.15;1.05;;;25.90;99.90;;;;;;5007914;28;20039;-72
2022/08/05 03:54:10;;;;;;;0.43;0.43;;;25.90;99.90;;;;;;4992641;28;20038;-71
2022/08/05 03:56:43;;;;;;;1.17;0.73;;;25.90;99.90;;;;;;4991435;28;20034;-71
2022/08/05 03:59:17;;;;;;;0.52;0.30;;;25.90;99.90;;;;;;5007749;28;20027;-71
2022/08/05 04:01:48;;;;;;;0.80;0.80;;;26.00;99.90;;;;;;5007650;28;20395;-71
2022/08/05 04:04:14;;;;;;;0.28;0.25;;;25.90;99.90;;;;;;4991399;28;20026;-71
2022/08/05 04:06:41;;;;;;;0.88;0.30;;;26.00;99.90;;;;;;5008035;28;20133;-73
2022/08/05 04:09:07;;;;;;;0.82;0.40;;;26.00;99.90;;;;;;5006910;28;20030;-71
2022/08/05 04:11:37;;;;;;;0.45;0.45;;;26.00;99.90;;;;;;5008038;28;20019;-71
2022/08/05 04:14:03;;;;;;;0.57;0.50;;;25.90;99.90;;;;;;5007629;28;20537;-71
2022/08/05 04:16:31;;;;;;;0.13;0.13;;;25.90;99.90;;;;;;4992782;28;20070;-71
2022/08/05 04:18:57;;;;;;;0.20;0.13;;;25.80;99.90;;;;;;5007535;28;20309;-71
2022/08/05 04:21:23;;;;;;;0.15;0.05;;;25.80;99.90;;;;;;4992457;28;20062;-71
2022/08/05 04:23:49;;;;;;;1.42;0.57;;;25.70;99.90;;;;;;4992317;28;20048;-71
2022/08/05 04:26:15;;;;;;;0.10;0.08;;;25.70;99.90;;;;;;4992445;28;20513;-71
2022/08/05 04:28:41;;;;;;;0.25;0.25;;;25.60;99.90;;;;;;4992338;28;20037;-71
2022/08/05 04:31:07;;;;;;;0.00;0.00;;;25.50;99.90;;;;;;5007674;28;20031;-71
2022/08/05 04:33:32;;;;;;;1.70;0.82;;;25.40;99.90;;;;;;4992252;28;20081;-70
2022/08/05 04:35:58;;;;;;;0.05;0.05;;;25.40;99.90;;;;;;4992312;28;20022;-72
2022/08/05 04:38:24;;;;;;;0.10;0.10;;;25.40;99.90;;;;;;5007572;28;20446;-72
2022/08/05 04:40:50;;;;;;;2.03;0.70;;;25.40;99.90;;;;;;5006784;28;20533;-72
2022/08/05 04:43:15;;;;;;;23.80;1.38;;;25.40;99.90;;;;;;4992084;28;20058;-72
2022/08/05 04:45:41;;;;;;;0.38;0.32;;;25.40;99.90;;;;;;4992518;28;20026;-71
2022/08/05 04:48:10;;;;;;;0.25;0.25;;;25.40;99.90;;;;;;4992284;28;20394;-71
2022/08/05 04:50:48;;;;;;;0.52;0.30;;;25.30;99.90;;;;;;4991574;28;20022;-72
2022/08/05 04:53:16;;;;;;;2.47;0.50;;;25.40;99.90;;;;;;4992041;28;20113;-72
2022/08/05 04:55:43;;;;;;;0.15;0.05;;;25.30;99.90;;;;;;4992339;28;20109;-71
2022/08/05 04:58:17;;;;;;;0.35;0.35;;;25.30;99.90;;;;;;5007098;28;20568;-71
2022/08/05 05:00:43;;;;;;;0.10;0.10;;;25.30;99.90;;;;;;5006805;28;20426;-71
2022/08/05 05:03:10;;;;;;;0.10;0.10;;;25.30;99.90;;;;;;4991638;28;20030;-71
2022/08/05 05:05:37;;;;;;;0.05;0.05;;;25.30;99.90;;;;;;5007161;28;20027;-71
2022/08/05 05:08:06;;;;;;;0.10;0.00;;;25.30;99.90;;;;;;5007326;28;20368;-71
2022/08/05 05:10:40;;;;;;;0.30;0.30;;;25.30;99.90;;;;;;5006400;28;20502;-71
2022/08/05 05:13:17;;;;;;;0.13;0.13;;;25.30;99.90;;;;;;4991642;28;20030;-71
2022/08/05 05:15:44;;;;;;;0.30;0.30;;;25.30;99.90;;;;;;5006904;28;20033;-71
2022/08/05 05:18:15;;;;;;;0.45;0.43;;;25.20;99.90;;;;;;4991885;28;20034;-73
2022/08/05 05:20:45;;;;;;;0.22;0.15;;;25.20;99.90;;;;;;4990180;28;20053;-69
2022/08/05 05:23:12;;;;;;;0.00;0.00;;;25.10;99.90;;;;;;4986468;28;20470;-69
2022/08/05 05:25:41;;;;;;;3.03;0.93;;;25.10;99.90;;;;;;4972135;28;20086;-69
2022/08/05 05:28:08;;;;;;;0.28;0.22;;;25.10;99.90;;;;;;4971823;28;20058;-69
2022/08/05 05:30:34;;;;;;;0.10;0.10;;;25.20;99.90;;;;;;5000800;28;20061;-70
2022/08/05 05:33:03;;;;;;;0.15;0.08;;;25.20;99.90;;;;;;4991068;28;20751;-70
2022/08/05 05:35:29;;;;;;;0.22;0.13;;;25.40;99.90;;;;;;4991229;28;20805;-70
2022/08/05 05:38:01;;;;;;;0.05;0.05;;;25.50;99.90;;;;;;5006431;28;20390;-70
2022/08/05 05:40:29;;;;;;;0.00;0.00;;;25.70;99.90;;;;;;4988762;28;20026;-70
2022/08/05 05:42:55;;;;;;;0.47;0.47;;;25.70;99.90;;;;;;4969927;28;20451;-72
2022/08/05 05:45:21;;;;;;;0.08;0.03;;;25.80;99.90;;;;;;4986665;28;20506;-71
2022/08/05 05:47:48;;;;;;;2.58;0.77;;;26.00;99.90;;;;;;4986590;28;20077;-71
2022/08/05 05:50:16;;;;;;;0.00;0.00;;;25.80;99.90;;;;;;4971487;28;20034;-75
2022/08/05 05:52:43;;;;;;;1.10;0.75;;;25.80;99.90;;;;;;4986534;28;20106;-75
2022/08/05 05:55:12;;;;;;;0.00;0.00;;;25.70;99.90;;;;;;4986902;28;20078;-73
2022/08/05 05:57:40;;;;;;;0.32;0.32;;;25.60;99.90;;;;;;4986319;28;20043;-75
2022/08/05 06:00:10;;;;;;;1.10;0.50;;;25.70;99.90;;;;;;4998224;28;20081;-73
2022/08/05 06:02:36;;;;;;;0.00;0.00;;;25.60;99.90;;;;;;5004736;28;20034;-76
2022/08/05 06:05:02;;;;;;;0.00;0.00;;;25.60;99.90;;;;;;4991484;28;20092;-73
2022/08/05 06:07:28;;;;;;;0.30;0.30;;;25.70;99.90;;;;;;4989953;28;20089;-71
2022/08/05 06:09:54;;;;;;;1.30;0.60;;;25.80;99.90;;;;;;4990676;28;20402;-71
2022/08/05 06:12:19;;;;;;;0.32;0.30;;;25.60;99.90;;;;;;4994710;28;20035;-72
2022/08/05 06:14:45;;;;;;;0.45;0.45;;;25.50;99.90;;;;;;4994891;28;20031;-71
2022/08/05 06:17:11;;;;;;;0.00;0.00;;;25.60;99.90;;;;;;4994847;28;20038;-73
2022/08/05 06:19:37;;;;;;;0.00;0.00;;;25.40;99.90;;;;;;4993162;28;20486;-73
2022/08/05 06:22:05;;;;;;;0.68;0.65;;;25.50;99.90;;;;;;4992929;28;20037;-72
2022/08/05 06:24:31;;;;;;;0.13;0.13;;;25.60;99.90;;;;;;4992768;28;20030;-72
2022/08/05 06:26:57;;;;;;;0.08;0.03;;;25.20;99.90;;;;;;4993751;28;20394;-73
2022/08/05 06:29:25;;;;;;;1.35;0.52;;;25.30;99.90;;;;;;4994068;28;20090;-74
2022/08/05 06:31:51;;;;;;;0.15;0.15;;;25.30;99.90;;;;;;4993470;28;20030;-71
2022/08/05 06:34:17;;;;;;;0.65;0.43;;;25.30;99.90;;;;;;4994078;28;20022;-72
2022/08/05 06:36:43;;;;;;;0.88;0.70;;;25.20;99.90;;;;;;4994537;28;20041;-70
2022/08/05 06:39:09;;;;;;;0.20;0.20;;;25.30;99.90;;;;;;4994084;28;20030;-70
2022/08/05 06:41:35;;;;;;;0.00;0.00;;;25.20;99.90;;;;;;4994006;28;20419;-69
2022/08/05 06:44:01;;;;;;;0.10;0.10;;;25.20;99.90;;;;;;5009120;28;20035;-70
2022/08/05 06:46:27;;;;;;;0.10;0.10;;;25.50;99.90;;;;;;5009242;28;20030;-69
2022/08/05 06:48:52;;;;;;;1.30;0.82;;;25.50;99.90;;;;;;5009182;28;20475;-68
2022/08/05 06:51:18;;;;;;;1.08;0.57;;;25.80;99.90;;;;;;5009080;28;20118;-69
2022/08/05 06:53:44;;;;;;;0.00;0.00;;;25.80;99.90;;;;;;4993882;28;20027;-69
2022/08/05 06:56:09;;;;;;;0.43;0.22;;;25.90;99.90;;;;;;4992696;28;20394;-69
2022/08/05 06:58:35;;;;;;;0.13;0.13;;;26.00;99.70;;;;;;5009338;28;20084;-68
2022/08/05 07:01:04;;;;;;;0.10;0.10;;;26.10;99.40;;;;;;4993456;28;20054;-68
2022/08/05 07:03:31;;;;;;;0.08;0.08;;;26.30;99.10;;;;;;4993500;28;20092;-68
2022/08/05 07:05:57;;;;;;;0.03;0.03;;;26.20;98.60;;;;;;4993904;28;20030;-68
2022/08/05 07:08:23;;;;;;;42.97;3.95;;;26.10;99.10;;;;;;4993693;28;20034;-68
2022/08/05 07:10:50;;;;;;;0.15;0.10;;;26.10;99.00;;;;;;5008606;28;20483;-69
2022/08/05 07:18:45;;;;;;;38.03;3.92;;;26.50;97.90;;;;;;4993507;28;20030;-70
2022/08/05 07:21:11;;;;;;;6.03;2.90;;;26.50;97.80;;;;;;5008913;28;20363;-73
2022/08/05 07:23:37;;;;;;;3.67;2.67;;;26.60;96.90;;;;;;4993880;28;20069;-70
2022/08/05 07:26:03;;;;;;;0.10;0.10;;;26.70;96.30;;;;;;4993982;28;20047;-68
2022/08/05 07:28:29;;;;;;;1.40;0.45;;;26.70;95.90;;;;;;5008084;28;20126;-67
2022/08/05 07:30:55;;;;;;;1.77;0.60;;;26.60;95.70;;;;;;4983294;28;20118;-70
2022/08/05 07:33:21;;;;;;;0.93;0.35;;;26.40;95.30;;;;;;4973805;28;20034;-69
2022/08/05 07:35:47;;;;;;;0.55;0.45;;;26.30;95.30;;;;;;4974334;28;20440;-68
2022/08/05 07:38:14;;;;;;;0.15;0.15;;;26.20;96.10;;;;;;4989009;28;20035;-72
2022/08/05 07:40:40;;;;;;;0.20;0.20;;;26.00;95.70;;;;;;4988786;28;20039;-72
2022/08/05 07:43:06;;;;;;;0.05;0.05;;;25.90;95.40;;;;;;4988813;28;20030;-71
2022/08/05 07:45:32;;;;;;;4.90;0.65;;;26.00;95.50;;;;;;4973795;28;20030;-76
2022/08/05 07:47:58;;;;;;;0.88;0.65;;;26.10;95.60;;;;;;4974071;28;20487;-75
2022/08/05 07:50:24;;;;;;;0.10;0.10;;;26.20;95.30;;;;;;4973236;28;20031;-71
2022/08/05 07:52:50;;;;;;;0.25;0.25;;;26.30;95.20;;;;;;4973476;28;20720;-72
2022/08/05 07:55:16;;;;;;;2.42;1.30;;;26.50;94.60;;;;;;4988849;28;20101;-73
2022/08/05 07:57:41;;;;;;;0.00;0.00;;;26.60;94.40;;;;;;4973743;28;20521;-72
2022/08/05 08:00:08;;;;;;;3.22;0.47;;;26.60;93.40;;;;;;4986986;28;20031;-70
2022/08/05 08:02:34;;;;;;;0.05;0.05;;;26.60;93.20;;;;;;4991451;28;20439;-69
2022/08/05 08:05:00;;;;;;;0.85;0.82;;;26.50;93.50;;;;;;4993341;28;20116;-68
2022/08/05 08:07:26;;;;;;;0.05;0.05;;;26.50;93.60;;;;;;5007630;28;20037;-71
2022/08/05 08:09:52;;;;;;;0.00;0.00;;;26.70;93.70;;;;;;4990964;28;20403;-70
2022/08/05 08:12:21;;;;;;;0.00;0.00;;;26.70;93.70;;;;;;5007393;28;20049;-71
2022/08/05 08:14:46;;;;;;;1.20;1.10;;;26.70;93.10;;;;;;5007223;28;20034;-70
2022/08/05 08:17:13;;;;;;;1.13;0.82;;;26.70;92.80;;;;;;5007987;28;20042;-70
2022/08/05 08:19:40;;;;;;;0.35;0.35;;;26.80;92.90;;;;;;4992331;28;20037;-68
2022/08/05 08:22:07;;;;;;;0.08;0.08;;;26.80;92.90;;;;;;5005837;28;20042;-66
2022/08/05 08:24:35;;;;;;;0.17;0.17;;;26.90;92.90;;;;;;4991563;28;20030;-68
2022/08/05 08:27:01;;;;;;;0.00;0.00;;;26.80;92.20;;;;;;4992667;28;20038;-67
2022/08/05 08:29:27;;;;;;;0.43;0.20;;;26.60;92.00;;;;;;5006601;28;20034;-69
2022/08/05 08:31:53;;;;;;;0.00;0.00;;;26.60;92.10;;;;;;4992335;28;20100;-74
2022/08/05 08:34:22;;;;;;;0.40;0.15;;;26.70;91.10;;;;;;4991843;28;20025;-69
2022/08/05 08:36:48;;;;;;;0.28;0.20;;;26.60;91.00;;;;;;5007452;28;20533;-73
2022/08/05 08:39:16;;;;;;;0.40;0.40;;;26.50;91.20;;;;;;4992586;28;20038;-71
2022/08/05 08:41:47;;;;;;;0.00;0.00;;;26.50;91.20;;;;;;5007353;28;20045;-72
2022/08/05 08:44:15;;;;;;;0.00;0.00;;;26.50;91.30;;;;;;4991779;28;20027;-71
2022/08/05 08:46:43;;;;;;;0.10;0.10;;;26.50;91.40;;;;;;5006996;28;20426;-71
2022/08/05 08:49:13;;;;;;;0.10;0.10;;;26.40;91.60;;;;;;4992048;28;20026;-71
2022/08/05 08:51:45;;;;;;;0.00;0.00;;;26.50;92.00;;;;;;4991976;28;20034;-71
2022/08/05 08:54:11;;;;;;;0.35;0.35;;;26.60;93.00;;;;;;5006328;28;20110;-71
2022/08/05 08:56:39;;;;;;;0.03;0.03;;;26.70;93.30;;;;;;4980132;28;20110;-71
2022/08/05 08:59:05;;;;;;;1.80;0.80;;;26.70;94.10;;;;;;4949479;28;20578;-71
2022/08/05 09:01:32;;;;;;;0.08;0.08;;;26.70;93.80;;;;;;4972750;28;20038;-71
2022/08/05 09:03:59;;;;;;;0.17;0.17;;;26.70;93.70;;;;;;4970234;28;20031;-73
2022/08/05 09:06:27;;;;;;;0.10;0.10;;;26.70;94.30;;;;;;4971310;28;20122;-72
2022/08/05 09:08:54;;;;;;;2.38;0.68;;;26.90;94.70;;;;;;4972027;28;20031;-72
2022/08/05 09:11:20;;;;;;;0.20;0.20;;;27.00;95.70;;;;;;4972165;28;20041;-78
2022/08/05 09:13:46;;;;;;;0.20;0.15;;;26.90;95.00;;;;;;4970415;28;20031;-69
2022/08/05 09:16:12;;;;;;;0.10;0.00;;;26.90;95.20;;;;;;4971057;28;20031;-66
2022/08/05 09:18:38;;;;;;;5.75;0.55;;;26.80;95.70;;;;;;4971069;28;20114;-66
2022/08/05 09:21:04;;;;;;;0.50;0.50;;;26.70;95.60;;;;;;4972006;28;20186;-66
2022/08/05 09:23:30;;;;;;;0.10;0.10;;;26.80;96.00;;;;;;4970720;28;20495;-66
2022/08/05 09:26:16;;;;;;;1.45;0.50;;;26.90;95.80;;;;;;4970820;28;20045;-66
2022/08/05 09:28:42;;;;;;;0.05;0.05;;;27.20;94.60;;;;;;4970731;28;20506;-66
2022/08/05 09:31:14;;;;;;;0.28;0.28;;;27.30;95.00;;;;;;4972107;28;20034;-66
2022/08/05 09:33:49;;;;;;;0.00;0.00;;;27.40;94.40;;;;;;4971825;28;20078;-67
2022/08/05 09:36:15;;;;;;;0.10;0.10;;;27.50;94.40;;;;;;4955376;28;20030;-66
2022/08/05 09:39:04;;;;;;;0.00;0.00;;;27.30;93.40;;;;;;4967449;28;20065;-67
2022/08/05 09:41:30;;;;;;;0.10;0.10;;;26.90;94.20;;;;;;4953231;28;20399;-67
2022/08/05 09:43:56;;;;;;;0.00;0.00;;;27.30;93.20;;;;;;4952607;28;20066;-67
2022/08/05 09:46:24;;;;;;;0.20;0.17;;;27.50;92.90;;;;;;4956870;28;20114;-67
2022/08/05 09:48:52;;;;;;;0.00;0.00;;;27.40;93.30;;;;;;4956479;28;20471;-67
2022/08/05 09:51:36;;;;;;;0.13;0.10;;;27.60;91.20;;;;;;4957064;28;20075;-67
2022/08/05 09:54:06;;;;;;;0.00;0.00;;;27.90;91.40;;;;;;4956473;28;20056;-67
2022/08/05 09:56:36;;;;;;;0.28;0.28;;;28.20;91.20;;;;;;4970956;28;20023;-67
2022/08/05 09:59:13;;;;;;;0.40;0.20;;;28.40;91.10;;;;;;4973868;28;20057;-67
2022/08/05 10:01:45;;;;;;;0.65;0.38;;;28.50;91.30;;;;;;4975852;28;20037;-67
2022/08/05 10:04:14;;;;;;;0.38;0.38;;;28.30;91.10;;;;;;4975597;28;20105;-68
2022/08/05 10:06:52;;;;;;;0.00;0.00;;;28.40;91.00;;;;;;4974515;28;20101;-68
2022/08/05 10:09:22;;;;;;;0.00;0.00;;;28.50;90.20;;;;;;4975536;28;20105;-67
2022/08/05 10:11:49;;;;;;;0.80;0.52;;;28.50;90.20;;;;;;4974653;28;20034;-68
2022/08/05 10:14:30;;;;;;;1.15;0.90;;;28.40;90.40;;;;;;4975296;28;20035;-66
2022/08/05 10:17:10;;;;;;;0.47;0.47;;;28.40;90.50;;;;;;4974544;28;20034;-68
2022/08/05 10:19:37;;;;;;;0.68;0.25;;;28.50;91.30;;;;;;4974121;28;20042;-67
2022/08/05 10:22:02;;;;;;;0.13;0.13;;;28.80;91.40;;;;;;4974810;28;20038;-67
2022/08/05 10:24:32;;;;;;;0.20;0.05;;;28.80;90.80;;;;;;4975399;28;20035;-67
2022/08/05 10:26:59;;;;;;;0.10;0.10;;;29.00;90.50;;;;;;4974398;28;20031;-67
2022/08/05 10:29:26;;;;;;;0.20;0.20;;;28.80;90.20;;;;;;4973510;28;20026;-67
2022/08/05 10:31:52;;;;;;;0.03;0.03;;;28.70;90.20;;;;;;4975307;28;20023;-67
2022/08/05 10:34:18;;;;;;;0.25;0.13;;;28.70;90.00;;;;;;4989940;28;20027;-66
2022/08/05 10:36:46;;;;;;;6.03;0.63;;;28.70;90.40;;;;;;4975199;28;20031;-67
2022/08/05 10:39:19;;;;;;;0.20;0.15;;;28.30;90.00;;;;;;4989743;28;20126;-67
2022/08/05 10:42:12;;;;;;;0.03;0.03;;;27.90;90.90;;;;;;4989963;28;20026;-67
2022/08/05 10:44:46;;;;;;;1.35;1.08;;;28.00;91.40;;;;;;4972349;28;20057;-66
2022/08/05 10:47:14;;;;;;;0.00;0.00;;;28.50;91.10;;;;;;4989858;28;20034;-67
2022/08/05 10:50:13;;;;;;;0.22;0.10;;;28.60;90.70;;;;;;4974875;28;20479;-68
2022/08/05 10:52:52;;;;;;;0.38;0.38;;;28.90;90.60;;;;;;4962725;28;20133;-68
2022/08/05 10:55:18;;;;;;;0.75;0.20;;;29.20;90.60;;;;;;4974341;28;20027;-68
2022/08/05 10:57:45;;;;;;;0.85;0.28;;;29.10;90.80;;;;;;4990155;28;20039;-66
2022/08/05 11:00:17;;;;;;;0.70;0.20;;;29.20;91.00;;;;;;4989266;28;20042;-66
2022/08/05 11:03:04;;;;;;;1.38;1.10;;;29.50;90.70;;;;;;4974455;28;20035;-66
2022/08/05 11:05:32;;;;;;;0.20;0.17;;;29.50;90.50;;;;;;4974920;28;20111;-67
2022/08/05 11:08:09;;;;;;;4.38;1.10;;;29.60;90.70;;;;;;4989565;28;20819;-67
2022/08/05 11:10:37;;;;;;;0.00;0.00;;;29.70;90.70;;;;;;4989044;28;20082;-67
2022/08/05 11:13:05;;;;;;;0.20;0.10;;;29.60;90.40;;;;;;4974314;28;20115;-67
2022/08/05 11:15:42;;;;;;;0.25;0.25;;;29.50;90.50;;;;;;4989448;28;20049;-67
2022/08/05 11:18:24;;;;;;;0.38;0.38;;;29.60;90.90;;;;;;4974593;28;20058;-67
2022/08/05 11:20:51;;;;;;;0.90;0.30;;;29.60;90.50;;;;;;4974237;28;20125;-68
2022/08/05 11:23:51;;;;;;;0.30;0.20;;;29.20;91.10;;;;;;4989122;28;20027;-68
2022/08/05 11:26:20;;;;;;;;;;;29.30;91.00;;;;;;4988661;28;20023;-68
2022/08/05 11:28:52;;;;;;;0.25;0.08;;;29.30;91.20;;;;;;4972384;28;19925;-68
2022/08/05 11:31:32;;;;;;;0.77;0.77;;;29.40;91.60;;;;;;4955609;28;20396;-67
2022/08/05 11:34:05;;;;;;;0.00;0.00;;;29.70;91.20;;;;;;4954580;28;20070;-67
2022/08/05 11:36:50;;;;;;;0.25;0.20;;;30.00;90.80;;;;;;4955196;28;20183;-67
2022/08/05 11:39:50;;;;;;;0.35;0.28;;;30.10;90.80;;;;;;4953482;28;20032;-67
2022/08/05 11:42:21;;;;;;;0.10;0.10;;;30.30;90.30;;;;;;4953758;28;20031;-68
2022/08/05 11:44:47;;;;;;;1.40;0.47;;;30.40;90.60;;;;;;4969032;28;20110;-68
2022/08/05 11:47:13;;;;;;;0.30;0.30;;;30.60;90.00;;;;;;4969604;28;20114;-68
2022/08/05 11:49:39;;;;;;;0.63;0.35;;;30.40;90.30;;;;;;4969315;28;20035;-68
2022/08/05 11:52:05;;;;;;;0.43;0.35;;;30.00;90.40;;;;;;4969132;28;20054;-68
2022/08/05 11:54:33;;;;;;;0.90;0.52;;;30.00;90.70;;;;;;4954633;28;20069;-68
2022/08/05 11:57:00;;;;;;;0.68;0.55;;;29.80;91.20;;;;;;4954607;28;20094;-67
2022/08/05 11:59:29;;;;;;;0.28;0.28;;;29.90;90.80;;;;;;4971853;28;20431;-66
2022/08/05 12:02:09;;;;;;;0.00;0.00;;;29.80;91.20;;;;;;4973608;28;20119;-67
2022/08/05 12:04:41;;;;;;;0.28;0.20;;;29.30;91.40;;;;;;4973843;28;20023;-67
2022/08/05 12:07:10;;;;;;;0.00;0.00;;;29.60;91.60;;;;;;4973240;28;20068;-66
2022/08/05 12:09:55;;;;;;;0.38;0.38;;;29.80;91.00;;;;;;4972070;28;20101;-66
2022/08/05 12:12:27;;;;;;;0.20;0.20;;;30.30;90.70;;;;;;4973234;28;20031;-67
2022/08/05 12:14:55;;;;;;;0.32;0.25;;;30.60;90.20;;;;;;4973323;28;20023;-67
2022/08/05 12:17:21;;;;;;;0.32;0.32;;;30.40;89.90;;;;;;4973800;28;20030;-67
2022/08/05 12:19:52;;;;;;;0.73;0.60;;;30.00;89.90;;;;;;4973275;28;20030;-67
2022/08/05 12:22:28;;;;;;;0.10;0.10;;;29.30;90.80;;;;;;4972807;28;20045;-67
2022/08/05 12:24:57;;;;;;;0.10;0.10;;;29.30;91.10;;;;;;4973281;28;20070;-67
2022/08/05 12:27:27;;;;;;;0.20;0.15;;;29.80;91.20;;;;;;4973491;28;20479;-67
2022/08/05 12:30:06;;;;;;;0.10;0.10;;;29.90;90.60;;;;;;4962933;28;20023;-67
2022/08/05 12:32:50;;;;;;;0.20;0.20;;;30.30;90.60;;;;;;4953694;28;20027;-67
2022/08/05 12:35:16;;;;;;;0.05;0.05;;;30.20;90.30;;;;;;4952726;29;20059;-67
2022/08/05 12:37:44;;;;;;;0.40;0.40;;;30.50;90.20;;;;;;4952908;29;20070;-67
2022/08/05 12:40:10;;;;;;;0.95;0.45;;;30.50;90.80;;;;;;4952268;29;20425;-67
2022/08/05 12:42:37;;;;;;;0.32;0.32;;;30.80;90.10;;;;;;4952438;29;20035;-67
2022/08/05 12:45:08;;;;;;;0.45;0.30;;;30.80;90.00;;;;;;4952314;29;20042;-66
2022/08/05 12:47:35;;;;;;;0.85;0.73;;;30.60;90.00;;;;;;4952432;29;20031;-66
2022/08/05 12:50:13;;;;;;;0.30;0.30;;;30.40;90.30;;;;;;4951851;29;20027;-66
2022/08/05 12:52:39;;;;;;;0.85;0.35;;;30.20;90.50;;;;;;4952241;28;20039;-66
2022/08/05 12:55:26;;;;;;;1.50;0.85;;;30.10;90.90;;;;;;4953416;28;20388;-66
2022/08/05 12:57:55;;;;;;;0.43;0.30;;;29.80;90.80;;;;;;4952369;29;20073;-66
2022/08/05 13:00:24;;;;;;;0.35;0.35;;;30.20;91.00;;;;;;4965314;28;20031;-66
2022/08/05 13:02:51;;;;;;;0.52;0.20;;;30.40;90.60;;;;;;4972544;28;20496;-67
2022/08/05 13:05:17;;;;;;;5.28;1.50;;;30.60;90.30;;;;;;4972773;28;20035;-66
2022/08/05 13:07:45;;;;;;;0.47;0.30;;;30.70;90.20;;;;;;4972509;28;20030;-66